KGPT/GPT METAR and TAF weather

Enter ICAO airport designator
Station Type Date Time Source
KGPT METAR 2019/10/21 05:53 UTC NOAA

KGPT 210553Z AUTO 19003KT 10SM CLR 23/21 A2990 RMK AO2 SLP126 T02330206 10233 20206 402720161 58005


Station Type Date Time Source
KGPT Decoded METAR 2019/10/21 05:53 UTC NOAA

GULFPORT-BILOXI REG AIRPORT , MS, United States (KGPT) 30-25N 089-05W 14M
Oct 21, 2019 - 01:53 AM EDT / 2019.10.21 0553 UTC
Wind: from the S (190 degrees) at 3 MPH (3 KT):0
Visibility: 10 mile(s):0
Sky conditions: clear
Temperature: 73.9 F (23.3 C)
Dew Point: 69.1 F (20.6 C)
Relative Humidity: 84%
Pressure (altimeter): 29.9 in. Hg (1012 hPa)
Pressure tendency: 0.01 inches (0.5 hPa) lower than three hours ago
ob: KGPT 210553Z AUTO 19003KT 10SM CLR 23/21 A2990 RMK AO2 SLP126 T02330206 10233 20206 402720161 58005
cycle: 6

Station Type Date Time Source
KGPT TAF 2019/10/21 06:22 UTC NOAA

TAF KGPT 210520Z 2106/2206 17006KT P6SM SCT250
FM211800 18009KT P6SM VCTS OVC090CB
FM212100 18009KT P6SM SHRA VCTS OVC040CB
FM220300 24005KT P6SM SHRA OVC090

Example: see airport list